Cat Lake, Canada
Current Conditions -  °F | °C
As of 2:00 PM on Thursday 23 Oct 2014 (Local Time) from CYPL Reporting Station
Broken Clouds Broken Clouds  
Wind Chill: 52°   Ceiling: 10000
Heat Index: 52°   Visibility: 15mi
Dew Point: 43°   Wind: 12mph
Humidity: 71%   Direction: 220°SW
Pressure: 29.83"   Gusts: NA
Location:  51.72°N, 91.8°W
Report Text: CYPL 231900Z 22010KT 170V230 15SM SCT020 BKN100 BKN230 11/06 A2983 RMK SC4AC2CI1 CU ASOCTD SLP111
Loading
Personal Weather Stations






























Interactive Weather Map
Tropical Storm Tracking
New forecast layout! Learn more

10-Day Weather Forecast

Advertisements
Track Severe Weather on mobile